Flight Track Log - Related Links

Times and Time Zones

All times are in EDT time to prevent confusion due to time zone crossing. See the UAL4849 flight status page for this flight to view local times or setup timezone preferences in your user account.

Time Position Orientation Groundspeed Altitude Reporting Facility
EDT Latitude Longitude Course Direction KTS MPH feet Rate Location/Type
Mon 10:25:04 AM 43.1036 -77.6914 227° Southwest 142 163 1,100  Level Cleveland Center
Mon 10:25:22 AM 43.0956 -77.7031 227° Southwest 122 140 1,800 1,308 Climbing Cleveland Center
Mon 10:26:22 AM 43.0581 -77.7019 179° South 158 182 2,800 920 Climbing Cleveland Center
Mon 10:27:39 AM 42.9944 -77.6681 159° South 178 205 3,900 964 Climbing Cleveland Center
Mon 10:28:39 AM 42.9503 -77.6503 164° South 196 226 5,000 1,200 Climbing Cleveland Center
Mon 10:29:39 AM 42.9217 -77.5864 121° Southeast 188 216 6,300 1,300 Climbing Cleveland Center
Mon 10:30:39 AM 42.9111 -77.5044 100° East 188 216 7,600 1,250 Climbing Cleveland Center
Mon 10:31:39 AM 42.8967 -77.4289 105° East 200 230 8,800 1,300 Climbing Cleveland Center
Mon 10:32:39 AM 42.8839 -77.3500 102° East 200 230 10,200 1,200 Climbing Cleveland Center
Mon 10:33:39 AM 42.8714 -77.2769 103° East 200 230 11,200 1,026 Climbing Cleveland Center
Mon 10:35:11 AM 42.8528 -77.1636 103° East 206 237 12,800 711 Climbing New York Center
Mon 10:36:11 AM 42.8383 -77.0800 103° East 211 243 13,000 101 Climbing New York Center
Mon 10:37:10 AM 42.8206 -76.9853 104° East 234 269 13,000  Level New York Center
Mon 10:38:11 AM 42.7836 -76.8939 119° Southeast 254 292 13,000  Level New York Center
Mon 10:39:12 AM 42.7442 -76.8083 122° Southeast 268 308 13,000  Level New York Center
Mon 10:40:12 AM 42.7069 -76.7231 121° Southeast 273 314 13,000  Level New York Center
Mon 10:41:10 AM 42.6672 -76.6378 122° Southeast 268 308 13,000  Level New York Center
Mon 10:42:11 AM 42.6300 -76.5528 121° Southeast 268 308 13,000  Level New York Center
Mon 10:43:10 AM 42.5942 -76.4706 121° Southeast 268 308 13,000  Level New York Center
Mon 10:44:13 AM 42.5544 -76.3883 123° Southeast 268 308 13,000  Level New York Center
Mon 10:45:38 AM 42.5003 -76.2733 123° Southeast 255 293 13,000  Level Boston Center
Mon 10:46:39 AM 42.4617 -76.1808 119° Southeast 255 293 13,000  Level Boston Center
Mon 10:47:37 AM 42.4247 -76.0969 121° Southeast 255 293 13,000  Level Boston Center
Mon 10:48:37 AM 42.3858 -76.0131 122° Southeast 255 293 13,000  Level Boston Center
Mon 10:49:38 AM 42.3486 -75.9322 122° Southeast 260 299 13,000  Level Boston Center
Mon 10:50:37 AM 42.3117 -75.8489 121° Southeast 260 299 13,000  Level Boston Center
Mon 10:51:38 AM 42.2744 -75.7681 122° Southeast 260 299 13,000  Level Boston Center
Mon 10:52:38 AM 42.2372 -75.6847 121° Southeast 260 299 13,000  Level Boston Center
Mon 10:53:39 AM 42.1958 -75.6014 124° Southeast 260 299 13,000  Level Boston Center
Mon 10:54:40 AM 42.1586 -75.5156 120° Southeast 260 299 13,000  Level Boston Center
Mon 10:55:37 AM 42.1192 -75.4322 123° Southeast 260 299 13,000  Level Boston Center
Mon 10:56:37 AM 42.0797 -75.3494 123° Southeast 260 299 13,000  Level Boston Center
Mon 10:57:39 AM 42.0444 -75.2611 118° Southeast 267 307 13,000  Level Boston Center
Mon 10:58:39 AM 42.0089 -75.1700 118° Southeast 267 307 13,000  Level Boston Center
Mon 10:59:39 AM 41.9736 -75.0792 118° Southeast 274 315 13,000  Level Boston Center
Mon 11:00:37 AM 41.9425 -74.9883 115° Southeast 274 315 13,000  Level Boston Center
Mon 11:01:37 AM 41.9069 -74.8978 118° Southeast 274 315 13,000 -198 Level Boston Center
Mon 11:02:38 AM 41.8711 -74.8100 119° Southeast 274 315 12,600 -496 Descending Boston Center
Mon 11:03:38 AM 41.8336 -74.7136 118° Southeast 280 322 12,000 -504 Descending Boston Center
Mon 11:04:37 AM 41.8000 -74.6206 116° Southeast 285 328 11,600 -1,050 Descending Boston Center
Mon 11:05:38 AM 41.7514 -74.5411 129° Southeast 279 321 9,900 -1,587 Descending Boston Center
Mon 11:06:38 AM 41.6764 -74.5414 180° South 243 280 8,400 -1,600 Descending Boston Center
Mon 11:07:38 AM 41.6011 -74.5556 188° South 267 307 6,700 -1,190 Descending Boston Center
Mon 11:08:39 AM 41.5319 -74.5700 189° South 267 307 6,000 -347 Descending Boston Center
Mon 11:09:39 AM 41.4631 -74.5814 187° South 253 291 6,000 -64 Level Boston Center
Mon 11:11:47 AM 41.3167 -74.6167 190° South 238 274 5,800 -319 Descending New York TRACON
Mon 11:12:47 AM 41.2667 -74.5667 143° Southeast 272 313 5,000 -400 Descending New York TRACON
Mon 11:13:47 AM 41.2167 -74.5000 135° Southeast 258 297 5,000  Level New York TRACON
Mon 11:14:47 AM 41.1667 -74.4333 135° Southeast 254 292 5,000  Level New York TRACON
Mon 11:15:47 AM 41.1167 -74.3833 143° Southeast 233 268 5,000  Level New York TRACON
Mon 11:16:47 AM 41.0667 -74.3167 135° Southeast 234 269 5,000 -53 Level New York TRACON
Mon 11:17:41 AM 41.0167 -74.2667 143° Southeast 214 246 4,900 -526 Descending New York TRACON
Mon 11:18:41 AM 40.9833 -74.2167 131° Southeast 197 227 4,000 -600 Descending New York TRACON
Mon 11:19:41 AM 40.9500 -74.1833 143° Southeast 185 213 3,700 -500 Descending New York TRACON
Mon 11:20:41 AM 40.9000 -74.1333 143° Southeast 181 208 3,000 -500 Descending New York TRACON
Mon 11:21:41 AM 40.8667 -74.1000 143° Southeast 168 193 2,700 -190 Descending New York TRACON
Mon 11:22:47 AM 40.8167 -74.1000 180° South 165 190 2,600 -333 Descending New York TRACON
Mon 11:23:47 AM 40.7833 -74.1167 201° Southwest 142 163 2,000 -750 Descending New York TRACON
Mon 11:24:47 AM 40.7500 -74.1333 201° Southwest 142 163 1,100 -842 Descending New York TRACON
Mon 11:25:41 AM 40.7167 -74.1500 201° Southwest 137 158 400 -778 Descending New York TRACON
Mon 11:27:00 AM 40.6925 -74.1687 169° South  Level Estimated
Mon 11:34:00 AM 40.6925 -74.1687 169° South  Level Estimated
Mon 11:35:00 AM 40.6925 -74.1687 169° South  Level Estimated

Login

Don't have an account? Register now (free) for customized features, flight alerts, and more!